createdAt,value
2017-12-19T00:01:14.797Z,8.73
2017-12-19T00:03:42.256Z,7.40
2017-12-19T00:06:09.738Z,11.40
2017-12-19T00:08:37.199Z,7.45
2017-12-19T00:11:04.665Z,10.30
2017-12-19T00:13:32.114Z,7.65
2017-12-19T00:16:00.354Z,9.18
2017-12-19T00:18:27.818Z,8.73
2017-12-19T00:20:55.297Z,11.73
2017-12-19T00:23:23.513Z,8.48
2017-12-19T00:25:50.978Z,10.38
2017-12-19T00:28:18.446Z,13.98
2017-12-19T00:30:45.910Z,9.35
2017-12-19T00:33:13.361Z,8.75
2017-12-19T00:35:40.827Z,9.27
2017-12-19T00:38:09.052Z,11.50
2017-12-19T00:40:36.517Z,11.80
2017-12-19T00:43:03.963Z,9.68
2017-12-19T00:45:32.194Z,10.85
2017-12-19T00:47:59.665Z,10.55
2017-12-19T00:50:27.125Z,11.85
2017-12-19T00:52:54.586Z,8.05
2017-12-19T00:55:22.046Z,9.50
2017-12-19T00:57:49.513Z,10.02
2017-12-19T01:00:16.997Z,9.88
2017-12-19T01:02:44.455Z,10.25
2017-12-19T01:05:11.913Z,8.77
2017-12-19T01:07:39.376Z,8.57
2017-12-19T01:10:06.822Z,10.98
2017-12-19T01:12:34.299Z,11.10
2017-12-19T01:15:01.782Z,11.02
2017-12-19T01:17:29.287Z,8.27
2017-12-19T01:19:57.507Z,13.38
2017-12-19T01:22:24.970Z,9.85
2017-12-19T01:24:52.433Z,7.97
2017-12-19T01:27:19.900Z,9.43
2017-12-19T01:29:47.349Z,6.37
2017-12-19T01:32:15.584Z,10.43
2017-12-19T01:34:43.804Z,9.20
2017-12-19T01:40:02.313Z,10.10
2017-12-19T01:42:30.541Z,8.35
2017-12-19T01:44:57.994Z,8.55
2017-12-19T01:47:25.466Z,14.20
2017-12-19T01:49:52.919Z,9.30
2017-12-19T01:52:20.375Z,9.35
2017-12-19T01:54:47.835Z,10.52
2017-12-19T01:57:15.298Z,7.05
2017-12-19T01:59:42.759Z,10.10
2017-12-19T02:02:10.235Z,10.73
2017-12-19T02:04:37.689Z,10.90
2017-12-19T02:07:05.205Z,10.75
2017-12-19T02:09:32.658Z,9.70
2017-12-19T02:12:00.142Z,12.82
2017-12-19T02:14:27.608Z,14.02
2017-12-19T02:16:55.074Z,10.27
2017-12-19T02:19:23.302Z,8.80
2017-12-19T02:21:50.830Z,10.85
2017-12-19T02:24:18.298Z,14.52
2017-12-19T02:26:46.526Z,11.73
2017-12-19T02:29:14.002Z,15.88
2017-12-19T02:31:41.472Z,14.27
2017-12-19T02:34:08.942Z,16.70
2017-12-19T02:36:36.404Z,12.10
2017-12-19T02:39:04.681Z,12.15
2017-12-19T02:41:32.157Z,13.32
2017-12-19T02:44:00.906Z,12.75
2017-12-19T02:46:28.384Z,13.93
2017-12-19T02:48:55.855Z,12.32
2017-12-19T02:51:24.083Z,12.25
2017-12-19T02:53:51.550Z,13.55
2017-12-19T02:56:19.018Z,14.30
2017-12-19T02:58:46.506Z,14.57
2017-12-19T03:01:14.731Z,14.65
2017-12-19T03:03:42.190Z,18.62
2017-12-19T03:06:09.657Z,13.52
2017-12-19T03:08:37.133Z,11.85
2017-12-19T03:11:04.585Z,12.82
2017-12-19T03:13:32.047Z,13.25
2017-12-19T03:15:59.513Z,14.20
2017-12-19T03:18:26.975Z,14.43
2017-12-19T03:20:54.433Z,13.30
2017-12-19T03:23:21.885Z,15.43
2017-12-19T03:25:49.358Z,15.75
2017-12-19T03:28:17.590Z,15.55
2017-12-19T03:30:45.076Z,14.07
2017-12-19T03:33:12.543Z,13.48
2017-12-19T03:35:40.024Z,13.73
2017-12-19T03:38:08.246Z,19.17
2017-12-19T03:40:35.722Z,17.98
2017-12-19T03:43:03.194Z,16.77
2017-12-19T03:45:30.657Z,15.60
2017-12-19T03:47:58.882Z,16.35
2017-12-19T03:50:26.363Z,16.27
2017-12-19T03:52:53.816Z,16.10
2017-12-19T03:55:21.311Z,16.25
2017-12-19T03:57:49.545Z,15.60
2017-12-19T04:00:17.016Z,15.57
2017-12-19T04:02:44.500Z,19.50
2017-12-19T04:05:11.958Z,17.00
2017-12-19T04:07:39.431Z,14.95
2017-12-19T04:10:07.653Z,13.75
2017-12-19T04:12:35.127Z,14.40
2017-12-19T04:15:02.594Z,15.15
2017-12-19T04:17:30.077Z,15.85
2017-12-19T04:19:58.305Z,15.20
2017-12-19T04:22:25.785Z,14.05
2017-12-19T04:24:53.247Z,16.15
2017-12-19T04:27:20.710Z,14.70
2017-12-19T04:29:48.174Z,16.10
2017-12-19T04:32:15.637Z,21.60
2017-12-19T04:34:43.107Z,17.50
2017-12-19T04:37:11.351Z,18.17
2017-12-19T04:39:38.812Z,15.45
2017-12-19T04:42:06.282Z,17.10
2017-12-19T04:44:33.742Z,17.80
2017-12-19T04:47:01.217Z,14.93
2017-12-19T04:49:29.441Z,16.67
2017-12-19T04:51:56.928Z,14.30
2017-12-19T04:54:24.381Z,16.12
2017-12-19T04:56:51.839Z,17.37
2017-12-19T04:59:19.302Z,16.58
2017-12-19T05:01:46.764Z,14.35
2017-12-19T05:04:14.238Z,16.65
2017-12-19T05:06:42.477Z,22.42
2017-12-19T05:09:09.926Z,13.43
2017-12-19T05:11:37.410Z,16.95
2017-12-19T05:14:04.874Z,16.42
2017-12-19T05:16:32.327Z,14.70
2017-12-19T05:18:59.802Z,14.50
2017-12-19T05:21:28.037Z,14.07
2017-12-19T05:23:55.502Z,17.85
2017-12-19T05:26:22.975Z,14.95
2017-12-19T05:28:50.460Z,16.35
2017-12-19T05:31:18.687Z,15.52
2017-12-19T05:33:46.155Z,21.65
2017-12-19T05:36:13.620Z,17.50
2017-12-19T05:38:41.094Z,16.20
2017-12-19T05:41:08.554Z,18.58
2017-12-19T05:43:36.047Z,15.27
2017-12-19T05:46:03.501Z,17.00
2017-12-19T05:48:30.962Z,16.37
2017-12-19T05:50:58.430Z,18.10
2017-12-19T05:53:25.891Z,15.90
2017-12-19T05:55:53.350Z,16.25
2017-12-19T05:58:20.814Z,15.63
2017-12-19T06:00:48.284Z,16.42
2017-12-19T06:03:15.744Z,14.43
2017-12-19T06:05:43.218Z,15.45
2017-12-19T06:08:10.678Z,19.98
2017-12-19T06:10:38.154Z,18.23
2017-12-19T06:13:05.646Z,17.23
2017-12-19T06:15:33.111Z,15.23
2017-12-19T06:18:01.022Z,19.55
2017-12-19T06:20:28.492Z,18.98
2017-12-19T06:22:55.958Z,19.58
2017-12-19T06:25:23.418Z,17.52
2017-12-19T06:27:51.646Z,19.75
2017-12-19T06:30:19.118Z,16.95
2017-12-19T06:32:46.580Z,17.75
2017-12-19T06:35:14.051Z,14.32
2017-12-19T06:37:41.519Z,16.17
2017-12-19T06:40:09.034Z,16.98
2017-12-19T06:42:36.502Z,15.32
2017-12-19T06:45:03.963Z,16.62
2017-12-19T06:47:31.437Z,16.40
2017-12-19T06:49:58.897Z,17.00
2017-12-19T06:52:26.367Z,19.87
2017-12-19T06:54:53.829Z,15.52
2017-12-19T06:57:21.297Z,17.05
2017-12-19T06:59:49.530Z,15.48
2017-12-19T07:02:16.998Z,19.35
2017-12-19T07:04:44.461Z,20.70
2017-12-19T07:07:11.934Z,18.30
2017-12-19T07:09:39.397Z,17.20
2017-12-19T07:12:06.874Z,18.50
2017-12-19T07:14:34.334Z,22.48
2017-12-19T07:17:02.567Z,21.80
2017-12-19T07:19:30.038Z,20.88
2017-12-19T07:21:57.510Z,24.12
2017-12-19T07:24:25.759Z,22.85
2017-12-19T07:26:53.253Z,22.67
2017-12-19T07:29:21.481Z,29.17
2017-12-19T07:31:49.757Z,27.08
2017-12-19T07:34:17.250Z,25.50
2017-12-19T07:36:44.715Z,28.23
2017-12-19T07:39:12.186Z,23.87
2017-12-19T07:41:40.414Z,25.75
2017-12-19T07:44:07.892Z,25.12
2017-12-19T07:46:35.679Z,23.92
2017-12-19T07:49:03.142Z,22.60
2017-12-19T07:51:31.388Z,25.23
2017-12-19T07:53:58.854Z,27.80
2017-12-19T07:56:26.338Z,24.98
2017-12-19T07:58:54.576Z,23.80
2017-12-19T08:01:22.033Z,25.33
2017-12-19T08:03:49.506Z,23.60
2017-12-19T08:06:16.993Z,29.05
2017-12-19T08:08:45.226Z,24.20
2017-12-19T08:11:12.691Z,28.92
2017-12-19T08:13:40.211Z,26.65
2017-12-19T08:16:07.679Z,25.95
2017-12-19T08:18:35.141Z,27.17
2017-12-19T08:21:02.609Z,26.23
2017-12-19T08:23:30.081Z,23.30
2017-12-19T08:25:57.556Z,23.58
2017-12-19T08:28:25.023Z,23.67
2017-12-19T08:30:52.490Z,25.85
2017-12-19T08:33:20.770Z,25.70
2017-12-19T08:35:48.278Z,26.25
2017-12-19T08:38:15.737Z,23.45
2017-12-19T08:40:43.983Z,20.35
2017-12-19T08:43:11.447Z,25.67
2017-12-19T08:45:38.926Z,24.48
2017-12-19T08:48:06.387Z,20.48
2017-12-19T08:50:33.885Z,21.85
2017-12-19T08:53:01.359Z,23.17
2017-12-19T08:55:29.604Z,25.50
2017-12-19T08:57:57.075Z,21.65
2017-12-19T09:00:24.542Z,23.92
2017-12-19T09:02:52.800Z,23.25
2017-12-19T09:05:20.257Z,25.10
2017-12-19T09:07:47.727Z,23.55
2017-12-19T09:10:15.189Z,30.17
2017-12-19T09:12:43.424Z,24.60
2017-12-19T09:15:10.894Z,23.17
2017-12-19T09:17:38.366Z,22.17
2017-12-19T09:20:05.824Z,25.15
2017-12-19T09:22:33.287Z,23.77
2017-12-19T09:25:00.751Z,22.67
2017-12-19T09:27:28.233Z,22.17
2017-12-19T09:29:55.701Z,20.70
2017-12-19T09:32:23.172Z,24.15
2017-12-19T09:34:50.643Z,19.55
2017-12-19T09:37:18.107Z,22.55
2017-12-19T09:39:45.623Z,21.73
2017-12-19T09:42:13.045Z,23.17
2017-12-19T09:44:40.519Z,20.75
2017-12-19T09:47:07.974Z,20.05
2017-12-19T09:49:35.460Z,24.58
2017-12-19T09:52:03.779Z,18.83
2017-12-19T09:54:31.267Z,23.60
2017-12-19T09:56:59.513Z,21.20
2017-12-19T09:59:26.984Z,23.52
2017-12-19T10:01:54.444Z,20.92
2017-12-19T10:04:21.961Z,19.75
2017-12-19T10:06:49.381Z,22.98
2017-12-19T10:09:16.855Z,23.70
2017-12-19T10:11:45.096Z,26.17
2017-12-19T10:14:12.569Z,25.37
2017-12-19T10:16:40.032Z,28.77
2017-12-19T10:19:07.504Z,25.67
2017-12-19T10:21:35.755Z,23.67
2017-12-19T10:24:03.218Z,20.90
2017-12-19T10:26:30.694Z,23.12
2017-12-19T10:28:58.930Z,27.65
2017-12-19T10:31:26.396Z,29.83
2017-12-19T10:33:53.921Z,26.80
2017-12-19T10:36:21.397Z,22.25
2017-12-19T10:38:48.879Z,25.65
2017-12-19T10:41:16.359Z,24.60
2017-12-19T10:43:44.600Z,23.45
2017-12-19T10:46:12.066Z,24.65
2017-12-19T10:48:39.534Z,23.73
2017-12-19T10:51:07.013Z,24.60
2017-12-19T10:53:35.236Z,25.70
2017-12-19T10:56:02.807Z,23.65
2017-12-19T10:58:30.991Z,22.42
2017-12-19T11:00:59.258Z,24.33
2017-12-19T11:03:29.130Z,26.98
2017-12-19T11:05:56.658Z,22.87
2017-12-19T11:08:24.112Z,24.27
2017-12-19T11:10:51.585Z,27.13
2017-12-19T11:13:19.048Z,26.05
2017-12-19T11:15:47.228Z,25.58
2017-12-19T11:18:15.562Z,27.00
2017-12-19T11:20:43.064Z,26.37
2017-12-19T11:23:10.535Z,30.37
2017-12-19T11:25:38.782Z,32.10
2017-12-19T11:28:06.257Z,25.52
2017-12-19T11:30:33.775Z,30.98
2017-12-19T11:33:01.268Z,34.88
2017-12-19T11:35:29.892Z,28.75
2017-12-19T11:37:57.378Z,29.65
2017-12-19T11:40:24.891Z,29.35
2017-12-19T11:42:53.141Z,33.00
2017-12-19T11:45:20.622Z,29.60
2017-12-19T11:47:48.866Z,33.42
2017-12-19T11:50:16.346Z,35.55
2017-12-19T11:52:43.830Z,33.03
2017-12-19T11:55:12.094Z,31.67
2017-12-19T11:57:40.327Z,35.60
2017-12-19T12:00:07.860Z,40.35
2017-12-19T12:02:35.344Z,31.75
2017-12-19T12:05:02.820Z,43.60
2017-12-19T12:07:30.315Z,39.45
2017-12-19T12:09:58.562Z,33.17
2017-12-19T12:12:26.077Z,32.13
2017-12-19T12:14:53.572Z,28.83
2017-12-19T12:17:21.078Z,33.00
2017-12-19T12:19:48.640Z,25.77
2017-12-19T12:22:16.133Z,37.40
2017-12-19T12:24:44.759Z,32.72
2017-12-19T12:27:13.021Z,30.05
2017-12-19T12:29:40.505Z,28.67
2017-12-19T12:32:08.763Z,31.58
2017-12-19T12:34:36.262Z,28.87
2017-12-19T12:37:03.750Z,38.70
2017-12-19T12:39:31.267Z,24.70
2017-12-19T12:41:58.747Z,25.83
2017-12-19T12:44:26.246Z,31.70
2017-12-19T12:46:53.765Z,29.58
2017-12-19T12:49:21.290Z,33.42
2017-12-19T12:51:49.531Z,32.45
2017-12-19T12:54:17.029Z,29.37
2017-12-19T12:56:45.270Z,25.98
2017-12-19T12:59:12.800Z,26.27
2017-12-19T13:01:40.304Z,25.00
2017-12-19T13:04:07.811Z,29.50
2017-12-19T13:06:35.313Z,24.92
2017-12-19T13:09:03.910Z,30.45
2017-12-19T13:11:31.430Z,27.45
2017-12-19T13:13:58.960Z,26.00
2017-12-19T13:16:26.427Z,29.05
2017-12-19T13:18:53.943Z,28.40
2017-12-19T13:21:21.418Z,31.75
2017-12-19T13:23:49.657Z,30.20
2017-12-19T13:26:17.166Z,32.10
2017-12-19T13:28:44.644Z,31.73
2017-12-19T13:31:12.117Z,28.50
2017-12-19T13:33:39.575Z,26.40
2017-12-19T13:36:07.054Z,27.37
2017-12-19T13:38:34.531Z,26.15
2017-12-19T13:41:02.002Z,32.15
2017-12-19T13:43:29.516Z,28.27
2017-12-19T13:45:57.704Z,29.95
2017-12-19T13:48:25.165Z,27.83
2017-12-19T13:50:52.642Z,22.45
2017-12-19T13:53:20.119Z,22.27
2017-12-19T13:55:47.589Z,26.77
2017-12-19T13:58:15.066Z,22.98
2017-12-19T14:00:42.535Z,27.65
2017-12-19T14:03:10.015Z,23.77
2017-12-19T14:05:37.481Z,23.92
2017-12-19T14:08:04.943Z,22.25
2017-12-19T14:10:32.510Z,19.37
2017-12-19T14:12:59.973Z,22.83
2017-12-19T14:15:27.469Z,25.30
2017-12-19T14:17:54.934Z,24.02
2017-12-19T14:20:22.402Z,20.27
2017-12-19T14:22:49.879Z,26.17
2017-12-19T14:25:17.348Z,22.37
2017-12-19T14:27:44.837Z,27.48
2017-12-19T14:30:13.123Z,34.70
2017-12-19T14:32:41.356Z,34.40
2017-12-19T14:35:08.820Z,26.60
2017-12-19T14:37:36.290Z,34.90
2017-12-19T14:40:03.754Z,27.55
2017-12-19T14:42:32.022Z,32.50
2017-12-19T14:44:59.465Z,29.10
2017-12-19T14:47:26.944Z,24.52
2017-12-19T14:49:54.402Z,29.52
2017-12-19T14:52:21.874Z,31.70
2017-12-19T14:54:49.345Z,28.50
2017-12-19T14:57:16.841Z,26.70
2017-12-19T14:59:44.295Z,20.35
2017-12-19T15:02:11.769Z,29.58
2017-12-19T15:04:39.238Z,27.23
2017-12-19T15:07:06.710Z,33.25
2017-12-19T15:09:34.194Z,27.60
2017-12-19T15:12:01.686Z,32.78
2017-12-19T15:14:29.161Z,33.83
2017-12-19T15:16:56.626Z,32.65
2017-12-19T15:19:24.097Z,35.35
2017-12-19T15:21:51.563Z,31.70
2017-12-19T15:24:19.047Z,24.58
2017-12-19T15:26:46.508Z,35.08
2017-12-19T15:29:13.994Z,32.45
2017-12-19T15:31:42.226Z,37.97
2017-12-19T15:34:09.704Z,31.25
2017-12-19T15:36:37.207Z,33.38
2017-12-19T15:39:04.664Z,31.80
2017-12-19T15:41:32.119Z,35.72
2017-12-19T15:43:59.590Z,34.50
2017-12-19T15:46:27.054Z,37.38
2017-12-19T15:48:54.534Z,36.58
2017-12-19T15:51:21.993Z,34.58
2017-12-19T15:53:50.233Z,37.67
2017-12-19T15:56:17.701Z,35.33
2017-12-19T15:58:45.198Z,33.45
2017-12-19T16:01:12.663Z,34.67
2017-12-19T16:03:40.136Z,34.13
2017-12-19T16:06:07.611Z,42.78
2017-12-19T16:08:35.104Z,43.53
2017-12-19T16:11:02.569Z,35.60
2017-12-19T16:13:30.044Z,35.75
2017-12-19T16:15:57.541Z,38.83
2017-12-19T16:18:25.019Z,44.17
2017-12-19T16:20:52.487Z,37.88
2017-12-19T16:23:20.001Z,37.92
2017-12-19T16:25:47.438Z,34.08
2017-12-19T16:28:14.907Z,37.45
2017-12-19T16:30:42.386Z,41.90
2017-12-19T16:33:09.853Z,41.42
2017-12-19T16:35:37.371Z,39.42
2017-12-19T16:38:05.605Z,41.10
2017-12-19T16:40:33.148Z,44.53
2017-12-19T16:43:00.612Z,44.97
2017-12-19T16:45:28.096Z,44.55
2017-12-19T16:47:55.568Z,42.47
2017-12-19T16:50:23.045Z,43.80
2017-12-19T16:52:50.545Z,40.58
2017-12-19T16:55:18.038Z,46.08
2017-12-19T16:57:45.510Z,44.65
2017-12-19T17:00:13.766Z,39.95
2017-12-19T17:02:41.239Z,42.35
2017-12-19T17:05:08.814Z,46.45
2017-12-19T17:07:37.084Z,37.45
2017-12-19T17:10:05.318Z,43.90
2017-12-19T17:12:32.810Z,42.85
2017-12-19T17:15:01.094Z,43.38
2017-12-19T17:17:29.346Z,45.65
2017-12-19T17:19:56.857Z,44.50
2017-12-19T17:22:24.323Z,47.80
2017-12-19T17:24:51.794Z,45.75
2017-12-19T17:27:19.294Z,44.65
2017-12-19T17:29:46.801Z,43.67
2017-12-19T17:32:24.206Z,38.80
2017-12-19T17:34:51.731Z,45.85
2017-12-19T17:37:20.012Z,44.80
2017-12-19T17:39:48.358Z,44.00
2017-12-19T17:42:15.818Z,23.48
2017-12-19T17:44:43.337Z,40.88
2017-12-19T17:47:10.809Z,44.30
2017-12-19T17:49:38.313Z,43.47
2017-12-19T17:52:06.591Z,42.90
2017-12-19T17:54:34.866Z,41.40
2017-12-19T17:57:03.146Z,46.37
2017-12-19T17:59:31.400Z,45.20
2017-12-19T18:01:58.863Z,41.97
2017-12-19T18:04:26.339Z,45.40
2017-12-19T18:06:54.588Z,51.37
2017-12-19T18:09:22.047Z,47.62
2017-12-19T18:11:49.525Z,47.13
2017-12-19T18:14:17.809Z,43.97
2017-12-19T18:16:46.037Z,52.55
2017-12-19T18:19:13.580Z,22.45
2017-12-19T18:21:41.035Z,44.95
2017-12-19T18:24:08.560Z,48.05
2017-12-19T18:26:36.820Z,48.30
2017-12-19T18:29:04.282Z,40.97
2017-12-19T18:31:31.740Z,37.17
2017-12-19T18:33:59.278Z,43.83
2017-12-19T18:36:26.737Z,46.90
2017-12-19T18:38:54.237Z,49.53
2017-12-19T18:41:22.511Z,46.78
2017-12-19T18:43:50.742Z,48.70
2017-12-19T18:46:18.281Z,49.83
2017-12-19T18:48:45.828Z,50.92
2017-12-19T18:51:13.340Z,42.75
2017-12-19T18:53:40.910Z,44.67
2017-12-19T18:56:08.450Z,51.20
2017-12-19T18:58:35.975Z,38.38
2017-12-19T19:01:03.485Z,44.83
2017-12-19T19:03:30.949Z,48.03
2017-12-19T19:05:58.468Z,49.90
2017-12-19T19:08:26.014Z,47.47
2017-12-19T19:10:53.478Z,50.10
2017-12-19T19:13:20.994Z,46.95
2017-12-19T19:15:49.239Z,45.38
2017-12-19T19:18:16.766Z,51.03
2017-12-19T19:20:44.238Z,47.17
2017-12-19T19:23:11.760Z,49.97
2017-12-19T19:25:39.992Z,45.65
2017-12-19T19:28:07.457Z,47.60
2017-12-19T19:30:34.972Z,52.45
2017-12-19T19:33:02.520Z,44.00
2017-12-19T19:35:30.817Z,47.50
2017-12-19T19:37:58.334Z,51.92
2017-12-19T19:40:25.805Z,50.05
2017-12-19T19:42:54.117Z,48.78
2017-12-19T19:45:21.635Z,48.65
2017-12-19T19:48:02.732Z,45.80
2017-12-19T19:50:30.265Z,42.10
2017-12-19T19:52:57.771Z,45.55
2017-12-19T19:55:25.286Z,32.08
2017-12-19T19:57:52.810Z,48.65
2017-12-19T20:00:20.326Z,48.58
2017-12-19T20:02:48.605Z,43.28
2017-12-19T20:05:16.889Z,54.92
2017-12-19T20:07:45.159Z,27.37
2017-12-19T20:10:13.449Z,44.95
2017-12-19T20:12:40.965Z,49.58
2017-12-19T20:15:08.480Z,55.50
2017-12-19T20:17:35.947Z,48.47
2017-12-19T20:20:03.532Z,50.95
2017-12-19T20:22:31.107Z,53.63
2017-12-19T20:24:58.617Z,48.95
2017-12-19T20:27:26.136Z,46.95
2017-12-19T20:29:53.590Z,50.78
2017-12-19T20:32:21.926Z,52.25
2017-12-19T20:34:49.458Z,48.10
2017-12-19T20:37:16.974Z,49.08
2017-12-19T20:39:44.453Z,42.28
2017-12-19T20:42:12.013Z,42.33
2017-12-19T20:44:39.522Z,44.30
2017-12-19T20:47:07.050Z,42.83
2017-12-19T20:49:34.586Z,39.08
2017-12-19T20:52:02.178Z,44.55
2017-12-19T20:54:29.688Z,42.05
2017-12-19T20:56:57.223Z,46.50
2017-12-19T20:59:24.741Z,39.17
2017-12-19T21:01:53.018Z,44.88
2017-12-19T21:04:21.333Z,46.85
2017-12-19T21:06:48.888Z,40.97
2017-12-19T21:09:16.462Z,41.60
2017-12-19T21:11:43.980Z,45.35
2017-12-19T21:14:12.270Z,49.88
2017-12-19T21:16:39.805Z,49.97
2017-12-19T21:19:07.402Z,45.60
2017-12-19T21:21:34.885Z,42.00
2017-12-19T21:24:02.441Z,46.50
2017-12-19T21:26:29.999Z,48.15
2017-12-19T21:28:57.516Z,45.47
2017-12-19T21:31:25.760Z,56.72
2017-12-19T21:33:53.282Z,49.78
2017-12-19T21:36:20.745Z,46.83
2017-12-19T21:38:48.280Z,46.05
2017-12-19T21:41:15.824Z,52.35
2017-12-19T21:43:44.108Z,40.72
2017-12-19T21:46:12.399Z,43.08
2017-12-19T21:48:39.933Z,52.22
2017-12-19T21:51:07.409Z,46.95
2017-12-19T21:53:35.703Z,52.25
2017-12-19T21:56:03.229Z,44.97
2017-12-19T21:58:31.525Z,44.15
2017-12-19T22:00:59.817Z,42.60
2017-12-19T22:03:27.360Z,41.67
2017-12-19T22:05:55.633Z,49.30
2017-12-19T22:08:23.929Z,23.80
2017-12-19T22:10:51.465Z,38.40
2017-12-19T22:13:19.766Z,37.42
2017-12-19T22:15:47.317Z,36.58
2017-12-19T22:18:15.550Z,39.28
2017-12-19T22:20:43.070Z,35.80
2017-12-19T22:23:10.598Z,31.52
2017-12-19T22:25:38.876Z,31.98
2017-12-19T22:28:07.113Z,37.00
2017-12-19T22:30:34.644Z,26.33
2017-12-19T22:33:02.177Z,27.27
2017-12-19T22:35:30.479Z,30.70
2017-12-19T22:37:57.984Z,31.20
2017-12-19T22:40:25.525Z,29.27
2017-12-19T22:42:53.028Z,29.08
2017-12-19T22:45:21.317Z,25.40
2017-12-19T22:47:49.542Z,24.95
2017-12-19T22:50:17.084Z,28.62
2017-12-19T22:52:44.613Z,26.70
2017-12-19T22:55:12.983Z,32.53
2017-12-19T22:57:41.223Z,28.10
2017-12-19T23:00:08.744Z,21.50
2017-12-19T23:02:36.231Z,30.75
2017-12-19T23:05:03.796Z,28.05
2017-12-19T23:07:31.316Z,26.75
2017-12-19T23:09:58.837Z,27.60
2017-12-19T23:12:26.361Z,28.60
2017-12-19T23:14:53.862Z,32.13
2017-12-19T23:17:21.357Z,26.60
2017-12-19T23:19:48.816Z,34.05
2017-12-19T23:22:16.366Z,30.08
2017-12-19T23:24:45.350Z,26.48
2017-12-19T23:27:13.629Z,27.27
2017-12-19T23:29:41.854Z,28.65
2017-12-19T23:32:10.090Z,31.02
2017-12-19T23:34:37.616Z,28.23
2017-12-19T23:37:05.164Z,28.48
2017-12-19T23:39:32.629Z,28.12
2017-12-19T23:42:00.146Z,29.92
2017-12-19T23:44:27.593Z,28.70
2017-12-19T23:46:55.900Z,28.25
2017-12-19T23:49:23.408Z,29.45
2017-12-19T23:51:51.688Z,28.87
2017-12-19T23:54:19.115Z,27.80
2017-12-19T23:56:46.589Z,28.87
2017-12-19T23:59:14.827Z,32.13
